Time;durP1;ratioP1;P1;durP2;ratioP2;P2;SDS_P1;SDS_P2;PMS_P1;PMS_P2;Temp;Humidity;BMP_temperature;BMP_pressure;BME280_temperature;BME280_humidity;BME280_pressure;Samples;Min_cycle;Max_cycle;Signal;HPM_P1;HPM_P2
2022/01/20 00:02:18;;;;;;;48.90;22.42;;;;;;;-1.67;100.00;99453.95;1730573;80;21066;-65
2022/01/20 00:04:52;;;;;;;49.90;23.45;;;;;;;-1.66;100.00;99455.58;1737607;80;21073;-65
2022/01/20 00:26:32;;;;;;;51.50;23.38;;;;;;;-1.57;100.00;99420.36;1687461;81;21755;-63
2022/01/20 00:28:59;;;;;;;48.17;22.05;;;;;;;-1.56;100.00;99411.18;1706547;82;21081;-65
2022/01/20 00:34:10;;;;;;;49.95;21.87;;;;;;;-1.52;100.00;99412.31;1696549;81;21591;-65
2022/01/20 00:39:26;;;;;;;45.17;23.15;;;;;;;-1.49;100.00;99399.70;1742073;81;21848;-67
2022/01/20 00:41:55;;;;;;;42.25;20.85;;;;;;;-1.47;100.00;99388.09;1723489;81;21024;-66
2022/01/20 00:44:24;;;;;;;47.03;22.75;;;;;;;-1.44;100.00;99387.32;1723637;82;21628;-65
2022/01/20 00:46:50;;;;;;;44.67;21.37;;;;;;;-1.44;100.00;99380.04;1710924;82;21143;-67
2022/01/20 00:49:18;;;;;;;36.15;19.70;;;;;;;-1.43;100.00;99375.46;1708723;80;21099;-66
2022/01/20 00:51:45;;;;;;;46.40;21.65;;;;;;;-1.42;100.00;99369.80;1714529;80;21313;-66
2022/01/20 00:54:12;;;;;;;45.03;20.68;;;;;;;-1.46;100.00;99369.99;1717243;81;21023;-66
2022/01/20 00:56:38;;;;;;;41.58;21.07;;;;;;;-1.44;100.00;99361.64;1714593;81;21099;-67
2022/01/20 00:59:05;;;;;;;41.68;21.97;;;;;;;-1.42;100.00;99362.22;1737736;80;21056;-67
2022/01/20 01:01:32;;;;;;;43.23;21.42;;;;;;;-1.39;100.00;99354.97;1724031;81;21006;-65
2022/01/20 01:03:58;;;;;;;40.43;20.52;;;;;;;-1.38;100.00;99357.98;1716419;81;21557;-67
2022/01/20 01:08:53;;;;;;;48.28;23.02;;;;;;;-1.38;100.00;99352.57;1703831;81;21100;-66
2022/01/20 01:11:23;;;;;;;43.23;22.98;;;;;;;-1.37;100.00;99358.25;1725209;80;21055;-66
2022/01/20 01:13:52;;;;;;;45.70;20.97;;;;;;;-1.36;100.00;99353.95;1718902;82;21059;-66
2022/01/20 01:16:23;;;;;;;43.40;20.75;;;;;;;-1.34;100.00;99348.30;1712169;82;21193;-68
2022/01/20 01:21:44;;;;;;;39.20;21.23;;;;;;;-1.34;100.00;99344.24;1741371;81;21111;-67
2022/01/20 01:24:09;;;;;;;37.23;21.17;;;;;;;-1.34;100.00;99338.83;1729693;80;21866;-67
2022/01/20 01:26:36;;;;;;;39.73;19.10;;;;;;;-1.34;100.00;99330.72;1710340;82;21174;-67
2022/01/20 01:29:16;;;;;;;42.88;21.45;;;;;;;-1.35;100.00;99326.39;1707811;81;21308;-64
2022/01/20 01:34:09;;;;;;;43.52;22.02;;;;;;;-1.34;100.00;99317.20;1740017;81;21076;-66
2022/01/20 01:36:49;;;;;;;40.63;20.27;;;;;;;-1.32;100.00;99308.32;1740827;80;21158;-66
2022/01/20 01:39:05;;;;;;;39.25;19.85;;;;;;;-1.29;100.00;99311.05;1742349;80;21082;-66
2022/01/20 01:41:38;;;;;;;41.37;20.20;;;;;;;-1.29;100.00;99319.99;1726980;80;21245;-66
2022/01/20 01:44:09;;;;;;;35.92;18.60;;;;;;;-1.29;100.00;99311.88;1732119;81;21009;-67
2022/01/20 01:46:38;;;;;;;37.50;19.45;;;;;;;-1.32;100.00;99302.91;1717527;81;21068;-63
2022/01/20 01:49:06;;;;;;;37.53;19.25;;;;;;;-1.35;100.00;99299.36;1712282;81;21153;-65
2022/01/20 01:51:34;;;;;;;35.70;17.55;;;;;;;-1.35;100.00;99300.16;1673822;84;21107;-66
2022/01/20 01:54:00;;;;;;;40.80;18.25;;;;;;;-1.33;100.00;99293.70;1718402;80;21543;-66
2022/01/20 01:56:29;;;;;;;40.85;19.73;;;;;;;-1.36;100.00;99297.70;1740873;80;21158;-66
2022/01/20 01:58:58;;;;;;;42.67;19.95;;;;;;;-1.40;100.00;99289.25;1738255;80;21091;-66
2022/01/20 02:01:43;;;;;;;34.53;19.15;;;;;;;-1.39;100.00;99284.16;1727662;80;21538;-66
2022/01/20 02:04:18;;;;;;;41.33;20.68;;;;;;;-1.38;100.00;99280.38;1702322;81;21146;-66
2022/01/20 02:20:13;;;;;;;38.15;19.00;;;;;;;-1.31;100.00;99265.34;1734488;81;21902;-66
2022/01/20 02:22:44;;;;;;;42.70;21.77;;;;;;;-1.29;100.00;99261.86;1691486;81;21067;-65
2022/01/20 02:25:26;;;;;;;35.73;19.20;;;;;;;-1.27;100.00;99269.72;1741782;79;21074;-62
2022/01/20 02:27:53;;;;;;;40.67;20.60;;;;;;;-1.26;100.00;99266.77;1743517;80;21047;-66
2022/01/20 02:30:21;;;;;;;35.78;19.45;;;;;;;-1.24;100.00;99254.34;1712301;81;21015;-66
2022/01/20 02:33:00;;;;;;;40.63;20.30;;;;;;;-1.24;100.00;99247.59;1734501;81;21143;-64
2022/01/20 02:35:29;;;;;;;38.45;19.87;;;;;;;-1.24;100.00;99242.18;1716732;80;21295;-64
2022/01/20 02:38:14;;;;;;;39.55;20.62;;;;;;;-1.23;100.00;99237.08;1715003;81;21713;-65
2022/01/20 02:44:49;;;;;;;36.50;19.67;;;;;;;-1.24;100.00;99238.95;1722693;80;21152;-66
2022/01/20 02:45:48;;;;;;;43.75;20.55;;;;;;;-1.27;100.00;99225.93;1734141;80;21489;-65
2022/01/20 02:48:14;;;;;;;39.08;19.07;;;;;;;-1.28;100.00;99231.03;1733183;80;21156;-67
2022/01/20 02:50:43;;;;;;;36.42;19.25;;;;;;;-1.26;100.00;99225.38;1739222;79;21505;-66
2022/01/20 02:53:10;;;;;;;34.95;19.52;;;;;;;-1.26;100.00;99221.32;1723023;81;21035;-67
2022/01/20 02:55:38;;;;;;;41.48;19.87;;;;;;;-1.26;100.00;99222.15;1704064;82;21523;-65
2022/01/20 02:58:07;;;;;;;44.40;20.80;;;;;;;-1.26;100.00;99208.63;1705566;81;21107;-67
2022/01/20 03:00:35;;;;;;;39.95;20.57;;;;;;;-1.27;100.00;99208.88;1715863;81;21066;-66
2022/01/20 03:03:04;;;;;;;50.25;21.62;;;;;;;-1.29;100.00;99209.66;1715362;81;21090;-66
2022/01/20 03:05:33;;;;;;;41.68;20.52;;;;;;;-1.29;100.00;99206.95;1699500;82;21600;-65
2022/01/20 03:08:02;;;;;;;36.77;20.52;;;;;;;-1.31;100.00;99205.85;1690041;82;21053;-66
2022/01/20 03:10:31;;;;;;;39.78;19.15;;;;;;;-1.31;100.00;99203.70;1701256;81;21630;-66
2022/01/20 03:12:57;;;;;;;45.65;20.77;;;;;;;-1.33;100.00;99197.16;1741647;80;21210;-65
2022/01/20 03:15:24;;;;;;;44.20;22.02;;;;;;;-1.35;100.00;99199.32;1740787;81;21036;-64
2022/01/20 03:17:51;;;;;;;36.85;19.87;;;;;;;-1.37;100.00;99189.28;1731628;81;22146;-63
2022/01/20 03:20:20;;;;;;;35.35;20.02;;;;;;;-1.41;100.00;99200.30;1701246;82;21056;-66
2022/01/20 03:22:47;;;;;;;41.45;22.32;;;;;;;-1.43;100.00;99192.98;1726499;81;21163;-65
2022/01/20 03:25:13;;;;;;;44.67;22.75;;;;;;;-1.44;100.00;99173.77;1723494;81;21651;-66
2022/01/20 03:27:42;;;;;;;38.28;20.77;;;;;;;-1.49;100.00;99173.99;1682572;83;21000;-64
2022/01/20 03:30:10;;;;;;;43.80;21.50;;;;;;;-1.50;100.00;99169.63;1693614;82;22251;-66
2022/01/20 03:32:37;;;;;;;41.08;22.00;;;;;;;-1.52;100.00;99165.56;1735748;81;21096;-65
2022/01/20 03:35:07;;;;;;;42.50;21.20;;;;;;;-1.54;100.00;99160.41;1719943;81;21771;-65
2022/01/20 03:37:34;;;;;;;42.30;21.87;;;;;;;-1.57;100.00;99164.13;1679495;82;21226;-66
2022/01/20 03:40:09;;;;;;;45.55;21.93;;;;;;;-1.60;100.00;99158.15;1743970;80;20999;-66
2022/01/20 03:42:39;;;;;;;47.45;21.48;;;;;;;-1.62;100.00;99155.42;1739048;80;21027;-65
2022/01/20 03:45:09;;;;;;;39.90;22.52;;;;;;;-1.64;100.00;99151.59;1741702;80;21005;-66
2022/01/20 03:47:35;;;;;;;45.95;24.00;;;;;;;-1.67;100.00;99146.69;1738590;80;21154;-66
2022/01/20 03:52:31;;;;;;;45.40;21.95;;;;;;;-1.66;100.00;99144.81;1731976;81;21042;-66
2022/01/20 03:54:58;;;;;;;49.95;24.05;;;;;;;-1.69;100.00;99139.38;1706272;81;21008;-65
2022/01/20 03:57:43;;;;;;;45.17;23.90;;;;;;;-1.71;100.00;99138.81;1712213;80;21527;-65
2022/01/20 04:00:12;;;;;;;48.52;25.00;;;;;;;-1.72;100.00;99135.28;1727834;81;22456;-66
2022/01/20 04:02:41;;;;;;;52.15;25.43;;;;;;;-1.75;100.00;99127.67;1695956;82;21544;-67
2022/01/20 04:05:10;;;;;;;49.13;23.22;;;;;;;-1.77;100.00;99129.80;1697719;81;21107;-68
2022/01/20 04:07:37;;;;;;;42.48;21.30;;;;;;;-1.79;100.00;99127.88;1726083;80;21012;-66
2022/01/20 04:10:05;;;;;;;46.50;23.50;;;;;;;-1.83;100.00;99124.05;1727148;81;21553;-66
2022/01/20 04:12:33;;;;;;;45.50;23.50;;;;;;;-1.84;100.00;99120.52;1732950;80;21194;-67
2022/01/20 04:15:07;;;;;;;49.98;24.23;;;;;;;-1.87;100.00;99112.91;1733383;81;21592;-67
2022/01/20 04:17:31;;;;;;;40.28;21.70;;;;;;;-1.89;100.00;99115.56;1672210;82;21135;-67
2022/01/20 04:19:57;;;;;;;43.10;22.10;;;;;;;-1.91;100.00;99108.26;1739994;81;22222;-66
2022/01/20 04:22:26;;;;;;;45.85;22.70;;;;;;;-1.91;100.00;99101.50;1686654;83;21725;-66
2022/01/20 04:24:54;;;;;;;46.83;21.93;;;;;;;-1.94;100.00;99097.95;1745738;80;21122;-67
2022/01/20 04:27:22;;;;;;;35.43;20.02;;;;;;;-1.96;100.00;99096.83;1684243;83;21042;-65
2022/01/20 04:29:48;;;;;;;39.35;20.85;;;;;;;-1.96;100.00;99096.83;1726943;80;21039;-66
2022/01/20 04:32:16;;;;;;;43.58;20.40;;;;;;;-1.99;100.00;99090.05;1738589;81;21055;-66
2022/01/20 04:34:45;;;;;;;41.83;20.05;;;;;;;-1.99;100.00;99083.30;1721580;81;21028;-67
2022/01/20 04:37:11;;;;;;;41.23;18.92;;;;;;;-2.00;100.00;99091.65;1721189;82;21213;-67
2022/01/20 04:39:44;;;;;;;44.58;22.22;;;;;;;-2.01;100.00;99088.12;1734668;81;21181;-65
2022/01/20 04:42:08;;;;;;;42.20;21.82;;;;;;;-2.06;100.00;99090.73;1683645;83;21089;-67
2022/01/20 04:44:43;;;;;;;40.70;21.45;;;;;;;-2.06;100.00;99086.69;1699983;81;21043;-66
2022/01/20 04:57:53;;;;;;;46.80;22.48;;;;;;;-2.15;100.00;99073.33;1731565;80;21087;-67
2022/01/20 05:00:20;;;;;;;45.95;21.85;;;;;;;-2.20;100.00;99069.48;1735639;80;21071;-66
2022/01/20 05:02:55;;;;;;;40.80;20.57;;;;;;;-2.21;100.00;99058.41;1684026;82;21149;-66
2022/01/20 05:05:22;;;;;;;44.80;21.50;;;;;;;-2.24;100.00;99049.97;1731170;81;21487;-67
2022/01/20 05:07:51;;;;;;;43.90;20.90;;;;;;;-2.25;100.00;99051.05;1721525;81;21119;-67
2022/01/20 05:10:17;;;;;;;45.38;22.98;;;;;;;-2.29;100.00;99041.80;1741853;80;21623;-67
2022/01/20 05:15:20;;;;;;;38.13;20.02;;;;;;;-2.33;100.00;99045.52;1751333;80;21601;-67
2022/01/20 05:17:47;;;;;;;38.33;19.92;;;;;;;-2.36;100.00;99052.76;1736911;80;21000;-65
2022/01/20 05:20:15;;;;;;;42.95;22.42;;;;;;;-2.38;100.00;99043.56;1735340;80;21564;-65
2022/01/20 05:22:45;;;;;;;41.00;20.37;;;;;;;-2.39;100.00;99041.91;1743327;80;21040;-66
2022/01/20 05:25:13;;;;;;;38.23;19.87;;;;;;;-2.38;100.00;99041.39;1753998;80;21097;-67
2022/01/20 05:27:41;;;;;;;37.23;18.95;;;;;;;-2.41;100.00;99046.75;1741662;80;21150;-68
2022/01/20 05:30:12;;;;;;;34.67;18.75;;;;;;;-2.45;100.00;99041.03;1734402;80;21031;-66
2022/01/20 05:32:43;;;;;;;43.42;19.57;;;;;;;-2.47;100.00;99035.57;1697751;81;21117;-66
2022/01/20 05:35:11;;;;;;;37.48;17.82;;;;;;;-2.50;100.00;99027.45;1662515;83;21205;-67
2022/01/20 05:37:38;;;;;;;36.58;17.82;;;;;;;-2.52;100.00;99034.14;1719699;81;21234;-66
2022/01/20 05:40:08;;;;;;;39.05;18.77;;;;;;;-2.57;100.00;99025.44;1736730;80;21093;-67
2022/01/20 05:42:39;;;;;;;44.25;20.12;;;;;;;-2.58;100.00;99017.86;1736964;80;21043;-66
2022/01/20 05:45:08;;;;;;;35.70;19.92;;;;;;;-2.59;100.00;99033.78;1702924;81;21055;-67
2022/01/20 05:47:43;;;;;;;40.52;19.35;;;;;;;-2.61;100.00;99032.41;1733574;80;21008;-66
2022/01/20 05:50:13;;;;;;;40.92;18.57;;;;;;;-2.62;100.00;99042.37;1660932;83;21076;-64
2022/01/20 05:52:44;;;;;;;40.03;21.35;;;;;;;-2.63;100.00;99040.74;1733285;80;21511;-66
2022/01/20 05:55:14;;;;;;;34.63;18.42;;;;;;;-2.66;100.00;99035.02;1727490;80;21113;-67
2022/01/20 05:57:41;;;;;;;37.50;19.98;;;;;;;-2.68;100.00;99032.56;1742421;80;21083;-66
2022/01/20 06:00:11;;;;;;;39.67;19.15;;;;;;;-2.69;100.00;99028.21;1735688;81;21096;-67
2022/01/20 06:05:35;;;;;;;42.23;20.30;;;;;;;-2.69;100.00;99019.59;1726700;80;21686;-67
2022/01/20 06:08:02;;;;;;;33.15;17.85;;;;;;;-2.70;100.00;99013.92;1751328;79;21011;-66
2022/01/20 06:10:31;;;;;;;36.03;18.82;;;;;;;-2.72;100.00;99016.56;1720985;81;21004;-67
2022/01/20 06:13:02;;;;;;;41.18;19.27;;;;;;;-2.73;100.00;99021.13;1711323;80;21150;-68
2022/01/20 06:15:28;;;;;;;33.33;18.75;;;;;;;-2.75;100.00;99009.80;1720069;81;21569;-65
2022/01/20 06:17:57;;;;;;;40.90;19.30;;;;;;;-2.75;100.00;98999.00;1706150;81;21964;-67
2022/01/20 06:20:26;;;;;;;40.52;21.48;;;;;;;-2.75;100.00;98999.52;1712917;81;21624;-67
2022/01/20 06:22:52;;;;;;;37.10;19.52;;;;;;;-2.75;100.00;99005.75;1693274;82;21068;-68
2022/01/20 06:25:20;;;;;;;37.88;18.10;;;;;;;-2.73;100.00;98998.20;1717267;81;21103;-67
2022/01/20 06:27:49;;;;;;;38.78;19.45;;;;;;;-2.71;100.00;99009.58;1707627;81;21631;-66
2022/01/20 06:30:19;;;;;;;31.20;18.02;;;;;;;-2.70;100.00;99009.87;1735352;80;21041;-64
2022/01/20 06:32:45;;;;;;;36.53;17.55;;;;;;;-2.67;100.00;99003.69;1742240;81;21056;-68
2022/01/20 06:35:13;;;;;;;37.85;18.10;;;;;;;-2.66;100.00;99002.64;1735486;80;21064;-67
2022/01/20 06:37:40;;;;;;;44.95;21.25;;;;;;;-2.64;100.00;99001.84;1736475;81;21095;-66
2022/01/20 06:40:09;;;;;;;45.38;21.20;;;;;;;-2.62;100.00;99003.25;1742737;81;21200;-68
2022/01/20 06:42:38;;;;;;;42.08;19.98;;;;;;;-2.60;100.00;98999.78;1701678;81;21179;-63
2022/01/20 06:45:16;;;;;;;44.42;20.17;;;;;;;-2.57;100.00;98985.80;1721288;80;21004;-67
2022/01/20 06:47:43;;;;;;;44.65;18.35;;;;;;;-2.55;100.00;98977.97;1688042;83;21029;-66
2022/01/20 06:50:13;;;;;;;39.65;19.20;;;;;;;-2.53;100.00;98964.53;1653406;84;21058;-68
2022/01/20 06:52:40;;;;;;;38.05;18.17;;;;;;;-2.51;100.00;98963.77;1698693;82;21713;-67
2022/01/20 06:55:10;;;;;;;36.50;17.17;;;;;;;-2.48;100.00;98958.39;1673496;83;21148;-66
2022/01/20 06:57:38;;;;;;;35.13;18.67;;;;;;;-2.47;100.00;98959.48;1707946;82;21167;-65
2022/01/20 07:00:10;;;;;;;31.55;16.07;;;;;;;-2.42;100.00;98952.55;1715146;81;21123;-63
2022/01/20 07:02:38;;;;;;;38.25;16.87;;;;;;;-2.39;100.00;98953.39;1709766;80;21032;-66
2022/01/20 07:05:06;;;;;;;40.17;17.60;;;;;;;-2.38;100.00;98949.62;1714468;80;21008;-64
2022/01/20 07:07:36;;;;;;;32.10;17.05;;;;;;;-2.35;100.00;98948.59;1752622;81;21323;-66
2022/01/20 07:10:09;;;;;;;32.60;16.87;;;;;;;-2.32;100.00;98949.44;1736949;80;21484;-66
2022/01/20 07:12:44;;;;;;;34.53;17.32;;;;;;;-2.30;100.00;98958.64;1733786;80;21060;-67
2022/01/20 07:15:13;;;;;;;33.88;17.00;;;;;;;-2.28;100.00;98958.39;1742019;81;21067;-66
2022/01/20 07:17:41;;;;;;;34.23;16.90;;;;;;;-2.25;100.00;98954.66;1752037;81;21035;-70
2022/01/20 07:20:12;;;;;;;36.73;17.35;;;;;;;-2.21;100.00;98955.81;1718537;81;21831;-65
2022/01/20 07:22:42;;;;;;;36.33;17.45;;;;;;;-2.13;100.00;98942.95;1678031;82;21058;-66
2022/01/20 07:25:11;;;;;;;31.55;16.17;;;;;;;-2.05;100.00;98941.17;1729149;81;20983;-65
2022/01/20 07:27:55;;;;;;;35.08;16.02;;;;;;;-2.02;100.00;98944.72;1732151;81;21378;-66
2022/01/20 07:30:23;;;;;;;36.58;18.67;;;;;;;-1.96;100.00;98949.10;1746370;80;21081;-67
2022/01/20 07:32:52;;;;;;;33.90;16.70;;;;;;;-1.89;100.00;98950.79;1708721;81;21153;-67
2022/01/20 07:35:20;;;;;;;36.35;16.73;;;;;;;-1.82;100.00;98949.25;1746619;81;21647;-66
2022/01/20 07:37:48;;;;;;;31.33;16.30;;;;;;;-1.74;100.00;98959.09;1740733;81;21519;-67
2022/01/20 07:40:18;;;;;;;35.08;16.65;;;;;;;-1.65;100.00;98960.81;1714734;82;21008;-67
2022/01/20 07:42:45;;;;;;;34.05;17.27;;;;;;;-1.59;100.00;98947.63;1741947;81;21241;-67
2022/01/20 07:45:21;;;;;;;33.25;16.07;;;;;;;-1.55;100.00;98949.30;1740478;80;21587;-67
2022/01/20 07:47:56;;;;;;;41.20;20.40;;;;;;;-1.53;100.00;98955.27;1742075;80;22881;-67
2022/01/20 07:50:22;;;;;;;38.53;17.00;;;;;;;-1.51;100.00;98953.14;1714611;81;21001;-68
2022/01/20 07:52:49;;;;;;;40.40;18.12;;;;;;;-1.44;100.00;98937.25;1721002;81;21112;-67
2022/01/20 07:55:17;;;;;;;41.08;17.85;;;;;;;-1.40;100.00;98934.33;1728121;81;21636;-65
2022/01/20 07:57:43;;;;;;;40.58;18.30;;;;;;;-1.35;100.00;98935.17;1733542;81;21524;-68
2022/01/20 08:00:14;;;;;;;37.08;17.42;;;;;;;-1.27;100.00;98937.15;1740177;80;21249;-66
2022/01/20 08:02:44;;;;;;;37.98;16.73;;;;;;;-1.23;100.00;98929.61;1699584;82;21007;-68
2022/01/20 08:05:12;;;;;;;45.23;18.45;;;;;;;-1.17;100.00;98931.84;1700381;81;21093;-67
2022/01/20 08:07:42;;;;;;;31.42;16.05;;;;;;;-1.11;100.00;98923.25;1694067;83;21571;-67
2022/01/20 08:10:12;;;;;;;38.78;16.40;;;;;;;-1.06;100.00;98913.00;1713820;82;21076;-66
2022/01/20 08:12:38;;;;;;;32.30;16.70;;;;;;;-1.02;100.00;98918.16;1696874;83;21139;-68
2022/01/20 08:15:10;;;;;;;31.65;16.42;;;;;;;-0.96;100.00;98912.27;1717069;81;21043;-66
2022/01/20 08:17:44;;;;;;;38.35;17.27;;;;;;;-0.86;100.00;98913.70;1710949;81;22059;-68
2022/01/20 08:20:12;;;;;;;29.82;16.55;;;;;;;-0.79;100.00;98918.36;1722631;82;21036;-67
2022/01/20 08:22:39;;;;;;;29.82;15.53;;;;;;;-0.76;100.00;98925.13;1718769;82;21093;-66
2022/01/20 08:25:11;;;;;;;35.83;16.23;;;;;;;-0.73;100.00;98927.31;1731320;80;21096;-67
2022/01/20 08:27:40;;;;;;;32.50;15.23;;;;;;;-0.68;100.00;98929.27;1722550;81;21551;-67
2022/01/20 08:30:12;;;;;;;32.58;14.30;;;;;;;-0.68;100.00;98928.70;1698950;82;21027;-67
2022/01/20 08:32:39;;;;;;;32.70;16.02;;;;;;;-0.69;100.00;98920.84;1692801;83;21502;-67
2022/01/20 08:35:23;;;;;;;31.42;15.15;;;;;;;-0.69;100.00;98919.49;1736835;81;21166;-67
2022/01/20 08:37:51;;;;;;;36.42;14.83;;;;;;;-0.64;100.00;98917.66;1740458;81;21001;-68
2022/01/20 08:40:22;;;;;;;31.80;16.02;;;;;;;-0.53;100.00;98922.58;1725968;81;21176;-66
2022/01/20 08:42:49;;;;;;;32.20;15.75;;;;;;;-0.45;100.00;98924.52;1748913;81;21515;-69
2022/01/20 08:45:21;;;;;;;38.38;16.77;;;;;;;-0.41;100.00;98922.94;1740565;81;21009;-67
2022/01/20 08:47:54;;;;;;;36.35;16.12;;;;;;;-0.35;100.00;98921.88;1738430;81;21133;-65
2022/01/20 08:50:22;;;;;;;;;;;;;;;-0.32;100.00;98915.94;1742457;80;21070;-68
2022/01/20 08:52:49;;;;;;;31.07;16.12;;;;;;;-0.30;100.00;98909.73;1738973;82;20130;-67
2022/01/20 08:55:16;;;;;;;40.75;16.52;;;;;;;-0.25;100.00;98894.86;1749158;81;21052;-67
2022/01/20 08:57:45;;;;;;;35.10;15.10;;;;;;;-0.15;100.00;98901.39;1736195;80;21126;-68
2022/01/20 09:00:15;;;;;;;32.80;15.72;;;;;;;-0.07;100.00;98896.02;1715006;82;21151;-68
2022/01/20 09:02:43;;;;;;;28.77;15.25;;;;;;;-0.02;100.00;98890.06;1716029;82;21048;-67
2022/01/20 09:05:10;;;;;;;34.20;16.62;;;;;;;0.04;100.00;98889.56;1719093;81;21072;-67
2022/01/20 09:07:46;;;;;;;38.28;16.75;;;;;;;0.13;100.00;98884.45;1651427;83;21528;-65
2022/01/20 09:10:21;;;;;;;37.03;16.67;;;;;;;0.23;100.00;98877.70;1691958;84;21032;-66
2022/01/20 09:15:31;;;;;;;33.20;15.93;;;;;;;0.43;100.00;98865.80;1668507;82;21065;-66
2022/01/20 09:18:13;;;;;;;38.95;16.65;;;;;;;0.52;100.00;98856.59;1694402;82;21525;-66
2022/01/20 09:20:40;;;;;;;38.60;16.73;;;;;;;0.58;100.00;98846.84;1738975;82;21689;-67
2022/01/20 09:23:07;;;;;;;34.38;15.75;;;;;;;0.66;100.00;98844.69;1739937;81;21064;-66
2022/01/20 09:25:36;;;;;;;32.15;15.72;;;;;;;0.71;100.00;98840.09;1747662;81;21158;-65
2022/01/20 09:28:04;;;;;;;35.80;18.00;;;;;;;0.81;100.00;98849.30;1744077;81;20997;-67
2022/01/20 09:30:32;;;;;;;31.65;15.38;;;;;;;0.90;100.00;98837.36;1732552;81;21005;-68
2022/01/20 09:33:12;;;;;;;42.67;18.50;;;;;;;1.01;100.00;98827.33;1694999;82;21552;-67
2022/01/20 09:35:33;;;;;;;35.05;16.52;;;;;;;1.07;100.00;98816.73;1695525;84;21025;-64
2022/01/20 09:38:01;;;;;;;28.50;13.95;;;;;;;1.11;100.00;98812.36;1696141;82;21244;-67
2022/01/20 09:40:31;;;;;;;41.42;19.05;;;;;;;1.12;100.00;98814.54;1703521;83;21060;-66
2022/01/20 09:43:04;;;;;;;42.95;20.12;;;;;;;1.15;100.00;98806.66;1713012;82;21048;-68
2022/01/20 09:45:32;;;;;;;41.33;16.65;;;;;;;1.19;100.00;98801.50;1717102;82;21032;-66
2022/01/20 09:48:01;;;;;;;33.65;16.12;;;;;;;1.24;100.00;98803.38;1706648;82;21036;-66
2022/01/20 09:50:47;;;;;;;27.60;14.63;;;;;;;1.30;100.00;98789.52;1704264;82;21891;-66
2022/01/20 09:53:16;;;;;;;34.98;15.83;;;;;;;1.39;100.00;98796.56;1744200;81;21019;-67
2022/01/20 09:55:45;;;;;;;36.68;16.32;;;;;;;1.47;100.00;98790.30;1745040;80;21029;-67
2022/01/20 10:11:17;;;;;;;26.57;15.48;;;;;;;1.94;100.00;98756.92;1788278;79;22193;-67
2022/01/20 10:13:48;;;;;;;32.25;15.65;;;;;;;1.98;100.00;98752.53;1748104;81;21003;-66
2022/01/20 10:16:23;;;;;;;35.00;17.67;;;;;;;2.08;100.00;98755.76;1751791;81;21285;-68
2022/01/20 10:19:01;;;;;;;36.85;17.17;;;;;;;2.18;100.00;98757.59;1753232;81;20960;-69
2022/01/20 10:21:30;;;;;;;37.93;17.65;;;;;;;2.27;100.00;98749.65;1749843;81;20940;-66
2022/01/20 10:24:10;;;;;;;38.53;18.80;;;;;;;2.34;100.00;98757.48;1750476;81;20964;-67
2022/01/20 10:26:39;;;;;;;42.23;18.12;;;;;;;2.29;100.00;98742.81;1717854;81;21488;-67
2022/01/20 10:29:12;;;;;;;32.20;17.60;;;;;;;2.18;100.00;98733.91;1753760;81;21072;-66
2022/01/20 10:31:49;;;;;;;38.70;17.48;;;;;;;2.11;100.00;98716.31;1753760;81;20968;-64
2022/01/20 10:34:30;;;;;;;33.63;16.80;;;;;;;2.11;100.00;98719.86;1751329;81;20996;-66
2022/01/20 10:37:03;;;;;;;40.30;16.90;;;;;;;2.14;100.00;98716.56;1751695;81;21571;-68
2022/01/20 10:39:42;;;;;;;40.75;18.55;;;;;;;2.21;100.00;98704.00;1751399;81;21513;-67
2022/01/20 10:42:12;;;;;;;36.60;16.65;;;;;;;2.24;100.00;98695.81;1749772;81;21130;-68
2022/01/20 10:44:47;;;;;;;36.53;17.48;;;;;;;2.25;100.00;98695.53;1719868;83;21067;-67
2022/01/20 10:47:23;;;;;;;38.83;17.42;;;;;;;2.24;100.00;98684.40;1713912;83;21552;-68
2022/01/20 10:49:50;;;;;;;34.73;17.45;;;;;;;2.23;100.00;98690.13;1713024;83;21056;-67
2022/01/20 10:52:22;;;;;;;33.02;16.62;;;;;;;2.19;100.00;98685.80;1715916;83;21016;-67
2022/01/20 10:54:54;;;;;;;29.52;15.85;;;;;;;2.27;100.00;98677.03;1712506;83;21571;-68
2022/01/20 10:57:32;;;;;;;28.70;15.50;;;;;;;2.35;100.00;98668.82;1715875;83;22103;-68
2022/01/20 11:00:05;;;;;;;37.48;18.92;;;;;;;2.46;100.00;98668.16;1716139;83;21067;-69
2022/01/20 11:02:35;;;;;;;34.33;16.73;;;;;;;2.55;100.00;98659.66;1712078;83;21528;-70
2022/01/20 11:05:03;;;;;;;33.75;16.97;;;;;;;2.64;100.00;98648.95;1716910;83;21060;-63
2022/01/20 11:07:30;;;;;;;35.80;16.62;;;;;;;2.73;100.00;98646.96;1709710;83;22732;-67
2022/01/20 11:10:03;;;;;;;32.10;17.05;;;;;;;2.77;100.00;98651.53;1691285;84;21039;-67
2022/01/20 11:12:44;;;;;;;37.33;17.52;;;;;;;2.82;100.00;98649.30;1689034;84;21096;-67
2022/01/20 11:15:31;;;;;;;32.85;15.75;;;;;;;2.84;100.00;98649.82;1683038;84;21070;-66
2022/01/20 11:18:00;;;;;;;36.15;17.40;;;;;;;2.88;100.00;98641.32;1683579;84;21064;-67
2022/01/20 11:20:43;;;;;;;36.33;16.02;;;;;;;2.87;100.00;98641.61;1683331;84;21167;-68
2022/01/20 11:23:11;;;;;;;42.93;19.05;;;;;;;2.91;100.00;98651.66;1675435;84;21043;-68
2022/01/20 11:25:43;;;;;;;33.73;18.42;;;;;;;2.88;100.00;98648.12;1683397;84;21083;-65
2022/01/20 11:28:23;;;;;;;38.42;17.00;;;;;;;2.76;100.00;98649.89;1684387;84;21024;-67
2022/01/20 11:31:08;;;;;;;30.37;15.45;;;;;;;2.63;100.00;98645.95;1685045;84;21083;-65
2022/01/20 11:33:44;;;;;;;36.95;17.37;;;;;;;2.61;100.00;98642.71;1684206;84;21247;-66
2022/01/20 11:36:31;;;;;;;40.25;19.23;;;;;;;2.63;100.00;98638.34;1697831;83;21042;-67
2022/01/20 11:39:05;;;;;;;29.18;15.53;;;;;;;2.61;100.00;98641.92;1688334;84;21028;-67
2022/01/20 11:41:43;;;;;;;33.28;16.27;;;;;;;2.53;100.00;98640.09;1671306;85;21040;-68
2022/01/20 11:44:20;;;;;;;42.60;17.27;;;;;;;2.47;100.00;98639.06;1666701;85;21070;-67
2022/01/20 11:46:49;;;;;;;34.65;16.17;;;;;;;2.37;100.00;98638.05;1684983;84;21129;-67
2022/01/20 11:49:21;;;;;;;38.25;18.35;;;;;;;2.30;100.00;98634.88;1696378;83;21063;-67
2022/01/20 11:51:58;;;;;;;39.78;18.40;;;;;;;2.22;100.00;98639.58;1685267;84;21597;-66
2022/01/20 11:54:43;;;;;;;32.63;15.80;;;;;;;2.15;100.00;98627.11;1694793;83;21027;-65
2022/01/20 11:57:30;;;;;;;32.33;15.98;;;;;;;2.09;100.00;98626.91;1688207;84;21024;-64
2022/01/20 12:00:01;;;;;;;36.98;16.42;;;;;;;2.03;100.00;98623.98;1671069;85;21159;-66
2022/01/20 12:02:36;;;;;;;42.08;17.98;;;;;;;2.00;100.00;98620.45;1665480;85;21487;-67
2022/01/20 12:05:27;;;;;;;42.85;17.73;;;;;;;1.96;100.00;98620.77;1666970;85;21039;-66
2022/01/20 12:08:20;;;;;;;38.88;17.17;;;;;;;1.90;100.00;98608.59;1670849;84;21067;-67
2022/01/20 12:11:02;;;;;;;40.25;17.42;;;;;;;1.89;100.00;98602.90;1672053;84;21086;-65
2022/01/20 12:13:31;;;;;;;37.17;18.70;;;;;;;1.88;100.00;98598.54;1679186;84;21032;-67
2022/01/20 12:16:01;;;;;;;41.85;20.30;;;;;;;1.93;100.00;98597.14;1680487;84;20988;-67
2022/01/20 12:18:30;;;;;;;34.63;17.10;;;;;;;2.01;100.00;98590.30;1681492;84;22223;-68
2022/01/20 12:21:02;;;;;;;33.45;16.57;;;;;;;2.17;100.00;98585.51;1680028;84;21028;-68
2022/01/20 12:23:29;;;;;;;34.27;16.75;;;;;;;2.41;100.00;98576.56;1678923;84;21070;-67
2022/01/20 12:26:05;;;;;;;29.25;14.73;;;;;;;2.67;100.00;98568.66;1681016;84;21242;-67
2022/01/20 12:28:31;;;;;;;29.42;14.35;;;;;;;2.87;100.00;98566.23;1681933;84;21052;-66
2022/01/20 12:31:03;;;;;;;31.25;14.53;;;;;;;3.02;100.00;98567.16;1680057;84;21072;-67
2022/01/20 12:33:32;;;;;;;26.97;14.63;;;;;;;3.13;100.00;98571.89;1678895;84;21052;-68
2022/01/20 12:36:03;;;;;;;28.15;14.33;;;;;;;3.29;100.00;98572.50;1680616;84;21039;-66
2022/01/20 12:38:36;;;;;;;29.25;15.53;;;;;;;3.49;100.00;98565.11;1681805;84;21158;-67
2022/01/20 12:41:10;;;;;;;33.65;16.82;;;;;;;3.66;100.00;98565.94;1681175;84;21100;-67
2022/01/20 12:44:06;;;;;;;26.48;14.60;;;;;;;3.75;100.00;98571.52;1695600;83;21137;-67
2022/01/20 12:46:36;;;;;;;27.48;14.38;;;;;;;3.71;100.00;98566.40;1694921;83;21086;-67
2022/01/20 12:49:11;;;;;;;22.82;13.18;;;;;;;3.50;100.00;98568.08;1695711;83;21019;-67
2022/01/20 12:51:50;;;;;;;33.90;15.80;;;;;;;3.21;100.00;98566.35;1696156;83;21186;-66